Time;durP1;ratioP1;P1;durP2;ratioP2;P2;SDS_P1;SDS_P2;PMS_P1;PMS_P2;Temp;Humidity;BMP_temperature;BMP_pressure;BME280_temperature;BME280_humidity;BME280_pressure;Samples;Min_cycle;Max_cycle;Signal;HPM_P1;HPM_P2
2021/08/13 00:02:07;;;;;;;12.00;2.83;;;;;;;22.54;39.05;101224.47;5074074;28;20371;-70
2021/08/13 00:04:33;;;;;;;13.82;3.90;;;;;;;22.53;39.05;101222.88;5073804;28;20073;-70
2021/08/13 00:06:59;;;;;;;10.32;2.60;;;;;;;22.59;39.09;101218.53;5073734;28;20036;-70
2021/08/13 00:09:24;;;;;;;13.95;3.38;;;;;;;22.60;38.89;101224.91;5073752;28;20029;-70
2021/08/13 00:11:50;;;;;;;14.30;3.25;;;;;;;22.50;39.19;101215.25;5073648;28;20063;-70
2021/08/13 00:14:16;;;;;;;10.15;2.80;;;;;;;22.47;39.23;101221.59;5073543;28;20059;-70
2021/08/13 00:16:42;;;;;;;12.52;3.65;;;;;;;22.43;39.16;101212.41;5073535;28;20429;-70
2021/08/13 00:19:08;;;;;;;14.50;3.78;;;;;;;22.41;39.42;101212.00;5073507;28;20024;-70
2021/08/13 00:21:33;;;;;;;17.10;3.95;;;;;;;22.38;39.34;101209.97;5073480;28;20051;-70
2021/08/13 00:23:59;;;;;;;7.50;3.25;;;;;;;22.36;39.16;101203.97;5072106;28;20031;-70
2021/08/13 00:26:27;;;;;;;10.32;3.38;;;;;;;22.35;39.50;101210.72;5073333;28;20085;-70
2021/08/13 00:28:54;;;;;;;9.95;3.42;;;;;;;22.27;39.51;101203.50;5073275;28;20037;-73
2021/08/13 00:31:20;;;;;;;12.15;4.07;;;;;;;22.20;39.58;101211.75;5073517;28;20046;-70
2021/08/13 00:33:45;;;;;;;11.98;3.30;;;;;;;22.14;39.62;101216.84;5072930;28;20567;-70
2021/08/13 00:36:11;;;;;;;12.23;2.80;;;;;;;22.12;39.73;101213.66;5073223;28;20445;-70
2021/08/13 00:38:37;;;;;;;11.93;3.00;;;;;;;22.20;39.64;101208.97;5073032;28;20028;-70
2021/08/13 00:41:03;;;;;;;16.20;3.88;;;;;;;22.17;39.77;101206.97;5071783;28;20398;-70
2021/08/13 00:43:29;;;;;;;8.70;3.05;;;;;;;22.19;39.63;101202.59;5072483;28;20048;-71
2021/08/13 00:45:55;;;;;;;11.77;2.80;;;;;;;22.15;39.88;101208.16;5073015;28;20029;-70
2021/08/13 00:48:20;;;;;;;9.90;2.50;;;;;;;22.08;40.07;101212.84;5072866;28;20024;-76
2021/08/13 00:50:47;;;;;;;9.63;2.90;;;;;;;22.10;40.04;101205.69;5072915;28;20025;-70
2021/08/13 00:53:13;;;;;;;10.73;3.05;;;;;;;22.10;39.98;101204.91;5072790;28;20024;-77
2021/08/13 00:55:39;;;;;;;14.43;4.18;;;;;;;22.09;40.12;101206.88;5071564;28;20437;-80
2021/08/13 00:58:07;;;;;;;13.40;3.25;;;;;;;22.02;40.33;101215.13;5072577;28;20021;-69
2021/08/13 01:00:33;;;;;;;11.35;2.97;;;;;;;21.97;40.43;101207.09;5072807;28;20025;-70
2021/08/13 01:02:59;;;;;;;12.55;3.88;;;;;;;21.91;40.58;101207.81;5073028;28;20100;-70
2021/08/13 01:05:25;;;;;;;10.65;3.10;;;;;;;21.88;40.59;101214.94;5071476;28;20455;-80
2021/08/13 01:07:50;;;;;;;10.65;3.13;;;;;;;21.84;40.77;101219.69;5072667;28;20043;-70
2021/08/13 01:10:16;;;;;;;16.25;3.58;;;;;;;21.92;40.37;101215.81;5071452;28;20039;-71
2021/08/13 01:12:56;;;;;;;20.75;3.53;;;;;;;21.89;40.78;101224.88;5072637;28;20024;-70
2021/08/13 01:15:22;;;;;;;12.23;2.88;;;;;;;21.88;40.55;101221.31;5072708;28;20024;-70
2021/08/13 01:17:57;;;;;;;14.48;3.80;;;;;;;21.94;40.70;101223.75;5072618;28;20035;-70
2021/08/13 01:20:45;;;;;;;6.85;3.08;;;;;;;21.94;40.50;101227.34;5072660;28;20391;-70
2021/08/13 01:23:19;;;;;;;11.10;3.30;;;;;;;21.82;40.78;101227.56;5052771;28;20047;-70
2021/08/13 01:25:50;;;;;;;9.43;3.17;;;;;;;21.84;40.65;101228.03;5072568;28;20033;-70
2021/08/13 01:28:44;;;;;;;11.23;3.00;;;;;;;21.82;40.76;101233.13;5072545;28;20422;-70
2021/08/13 01:31:18;;;;;;;19.80;3.33;;;;;;;21.77;40.87;101239.84;5072548;28;20485;-79
2021/08/13 01:33:47;;;;;;;15.40;2.75;;;;;;;21.71;41.16;101237.78;5072148;28;20098;-70
2021/08/13 01:36:15;;;;;;;13.63;2.70;;;;;;;21.79;40.81;101234.69;5071188;28;20034;-70
2021/08/13 01:38:42;;;;;;;12.82;3.00;;;;;;;21.62;41.28;101237.25;5072376;28;20108;-71
2021/08/13 01:41:11;;;;;;;18.73;4.18;;;;;;;21.66;41.13;101230.53;5072359;28;20528;-70
2021/08/13 01:43:40;;;;;;;14.18;2.95;;;;;;;21.64;41.43;101237.66;5072256;28;20031;-70
2021/08/13 01:46:06;;;;;;;8.75;2.88;;;;;;;21.62;41.34;101235.28;5072318;28;20021;-70
2021/08/13 01:48:34;;;;;;;13.32;3.28;;;;;;;21.55;41.61;101224.84;5072266;28;20025;-70
2021/08/13 01:51:00;;;;;;;14.18;3.33;;;;;;;21.59;41.42;101222.91;5072201;28;20498;-70
2021/08/13 01:53:27;;;;;;;14.52;3.42;;;;;;;21.55;41.50;101222.06;5070936;28;20036;-70
2021/08/13 01:55:53;;;;;;;13.38;3.88;;;;;;;21.58;41.52;101224.09;5074458;28;20090;-70
2021/08/13 01:58:20;;;;;;;9.68;2.50;;;;;;;21.54;41.64;101217.69;5076498;28;20021;-70
2021/08/13 02:00:49;;;;;;;9.50;2.75;;;;;;;21.47;41.85;101214.81;5074869;28;20032;-73
2021/08/13 02:03:15;;;;;;;13.63;3.05;;;;;;;21.42;42.19;101211.53;5076187;28;20494;-70
2021/08/13 02:05:43;;;;;;;13.77;3.65;;;;;;;21.47;41.97;101205.66;5076006;28;20107;-73
2021/08/13 02:08:09;;;;;;;16.27;3.38;;;;;;;21.44;42.14;101201.63;5076061;28;20071;-71
2021/08/13 02:10:37;;;;;;;13.10;4.05;;;;;;;21.44;42.29;101190.53;5076062;28;20107;-70
2021/08/13 02:13:05;;;;;;;15.48;3.95;;;;;;;21.25;42.78;101187.84;5074577;28;20036;-70
2021/08/13 02:15:31;;;;;;;11.35;3.47;;;;;;;21.40;42.60;101188.88;5075810;28;20048;-70
2021/08/13 02:18:10;;;;;;;11.25;2.85;;;;;;;21.38;42.69;101188.44;5075802;28;20038;-70
2021/08/13 02:20:39;;;;;;;15.85;4.85;;;;;;;21.32;42.97;101188.78;5075711;28;20047;-70
2021/08/13 02:23:09;;;;;;;16.58;3.65;;;;;;;21.45;42.55;101183.78;5075638;28;20021;-70
2021/08/13 02:25:34;;;;;;;15.90;4.22;;;;;;;21.45;42.65;101181.00;5074423;28;20036;-70
2021/08/13 02:28:00;;;;;;;14.18;3.08;;;;;;;21.47;42.59;101173.09;5075674;28;20537;-74
2021/08/13 02:30:26;;;;;;;15.82;3.88;;;;;;;21.35;42.83;101181.66;5075600;28;20158;-70
2021/08/13 02:32:52;;;;;;;21.23;5.00;;;;;;;21.41;42.99;101179.38;5075333;28;20060;-70
2021/08/13 02:35:18;;;;;;;15.98;3.75;;;;;;;21.40;43.09;101172.22;5075397;28;20477;-70
2021/08/13 02:37:58;;;;;;;10.73;2.75;;;;;;;21.35;43.31;101181.66;5075427;28;20016;-71
2021/08/13 02:40:52;;;;;;;19.67;3.95;;;;;;;21.42;43.26;101173.44;5075762;28;20013;-70
2021/08/13 02:43:25;;;;;;;13.60;3.78;;;;;;;21.41;43.26;101179.38;5073154;28;20040;-70
2021/08/13 02:45:54;;;;;;;11.57;4.35;;;;;;;21.32;43.50;101183.22;5075315;28;20020;-70
2021/08/13 02:48:20;;;;;;;14.33;3.70;;;;;;;21.36;43.23;101177.69;5075328;28;20111;-70
2021/08/13 02:50:48;;;;;;;16.40;3.47;;;;;;;21.39;43.43;101171.41;5075259;28;20057;-71
2021/08/13 02:53:19;;;;;;;17.85;3.38;;;;;;;21.35;43.51;101173.31;5075200;28;20100;-69
2021/08/13 02:55:50;;;;;;;18.73;4.65;;;;;;;21.28;43.54;101170.44;5075251;28;20139;-70
2021/08/13 02:58:19;;;;;;;18.15;4.10;;;;;;;21.21;44.08;101179.44;5075198;28;20031;-70
2021/08/13 03:00:46;;;;;;;16.80;4.20;;;;;;;21.25;43.95;101171.19;5075065;28;20030;-70
2021/08/13 03:03:15;;;;;;;13.48;3.15;;;;;;;21.24;44.02;101169.56;5075017;28;20021;-70
2021/08/13 03:05:48;;;;;;;14.25;3.92;;;;;;;21.19;44.23;101183.78;5074422;28;20056;-70
2021/08/13 03:08:15;;;;;;;17.48;3.58;;;;;;;21.21;44.22;101175.88;5073751;28;20103;-70
2021/08/13 03:10:42;;;;;;;13.00;3.95;;;;;;;21.13;44.35;101168.59;5075128;28;20020;-70
2021/08/13 03:13:08;;;;;;;13.05;3.42;;;;;;;21.19;44.34;101167.91;5074769;28;20070;-70
2021/08/13 03:15:34;;;;;;;13.35;3.22;;;;;;;21.24;44.10;101170.38;5074762;28;20463;-69
2021/08/13 03:18:02;;;;;;;15.80;3.13;;;;;;;21.22;44.11;101174.69;5074740;28;20027;-71
2021/08/13 03:20:28;;;;;;;15.23;3.80;;;;;;;21.28;44.03;101168.47;5074718;28;20025;-70
2021/08/13 03:22:54;;;;;;;12.30;4.05;;;;;;;21.29;44.15;101167.28;5074670;28;20025;-70
2021/08/13 03:25:20;;;;;;;19.52;4.18;;;;;;;21.17;44.25;101180.59;5074668;28;20028;-70
2021/08/13 03:27:47;;;;;;;13.65;3.90;;;;;;;21.17;44.33;101172.25;5074589;28;20028;-70
2021/08/13 03:30:13;;;;;;;13.25;3.63;;;;;;;21.08;44.67;101182.81;5074548;28;20028;-70
2021/08/13 03:32:42;;;;;;;11.57;3.83;;;;;;;21.10;44.74;101181.28;5074358;28;20029;-74
2021/08/13 03:35:09;;;;;;;19.73;4.32;;;;;;;20.99;44.88;101181.09;5074382;28;20036;-70
2021/08/13 03:37:35;;;;;;;11.30;4.10;;;;;;;21.09;44.56;101176.09;5074401;28;20479;-70
2021/08/13 03:40:03;;;;;;;10.95;3.22;;;;;;;20.97;45.09;101177.09;5073741;28;20017;-70
2021/08/13 03:42:29;;;;;;;15.23;4.38;;;;;;;21.06;44.83;101174.84;5072014;28;20475;-70
2021/08/13 03:44:55;;;;;;;14.70;3.80;;;;;;;20.99;44.86;101175.53;5074240;28;20060;-70
2021/08/13 03:47:20;;;;;;;13.27;3.70;;;;;;;20.97;44.97;101177.09;5074455;28;20032;-70
2021/08/13 03:49:46;;;;;;;15.27;4.50;;;;;;;20.97;45.10;101172.34;5074405;28;20544;-70
2021/08/13 03:52:11;;;;;;;12.95;3.75;;;;;;;20.96;45.46;101179.06;5074050;28;20396;-70
2021/08/13 03:54:37;;;;;;;19.90;4.43;;;;;;;21.04;45.00;101166.09;5073889;28;20025;-70
2021/08/13 03:57:03;;;;;;;13.75;4.00;;;;;;;20.72;46.04;101158.06;5073967;28;20024;-70
2021/08/13 03:59:29;;;;;;;12.82;3.67;;;;;;;20.92;45.53;101174.63;5072748;28;20037;-70
2021/08/13 04:01:54;;;;;;;14.15;3.83;;;;;;;20.96;45.39;101159.63;5073893;28;20028;-70
2021/08/13 04:04:20;;;;;;;15.07;3.63;;;;;;;20.98;45.36;101160.06;5073911;28;20032;-70
2021/08/13 04:06:46;;;;;;;14.60;3.72;;;;;;;20.80;46.10;101160.97;5073839;28;20398;-70
2021/08/13 04:09:11;;;;;;;9.18;3.38;;;;;;;20.84;45.87;101157.06;5073737;28;20392;-70
2021/08/13 04:11:37;;;;;;;15.63;3.58;;;;;;;20.88;45.82;101159.91;5073606;28;20025;-70
2021/08/13 04:14:04;;;;;;;14.02;4.22;;;;;;;20.85;46.04;101158.66;5073594;28;20035;-70
2021/08/13 04:16:30;;;;;;;14.10;3.30;;;;;;;20.88;45.98;101165.47;5073809;28;20055;-70
2021/08/13 04:18:56;;;;;;;8.65;2.72;;;;;;;20.94;45.74;101166.75;5072730;28;20056;-70
2021/08/13 04:21:22;;;;;;;18.38;4.47;;;;;;;20.98;45.67;101173.16;5073488;28;20024;-70
2021/08/13 04:23:47;;;;;;;23.17;3.80;;;;;;;21.29;44.81;101174.81;5073432;28;20029;-69
2021/08/13 04:26:13;;;;;;;11.73;3.55;;;;;;;21.39;44.61;101178.94;5073673;28;20413;-71
2021/08/13 04:28:39;;;;;;;17.48;3.50;;;;;;;21.30;44.74;101179.19;5073329;28;20526;-76
2021/08/13 04:31:04;;;;;;;17.17;4.30;;;;;;;21.17;45.12;101172.25;5073557;28;20040;-70
2021/08/13 04:33:32;;;;;;;15.45;3.63;;;;;;;21.01;45.58;101183.53;5071706;28;20124;-70
2021/08/13 04:35:58;;;;;;;13.38;3.17;;;;;;;20.96;45.83;101165.19;5071941;28;20474;-70
2021/08/13 04:38:25;;;;;;;15.10;4.55;;;;;;;20.82;46.14;101169.72;5073158;28;20070;-70
2021/08/13 04:40:51;;;;;;;16.88;4.03;;;;;;;20.97;45.66;101177.91;5073111;28;20471;-70
2021/08/13 04:43:17;;;;;;;14.65;3.97;;;;;;;21.06;45.42;101192.31;5073068;28;20024;-69
2021/08/13 04:45:43;;;;;;;15.50;4.07;;;;;;;21.06;45.58;101175.66;5073027;28;20028;-70
2021/08/13 04:48:08;;;;;;;14.05;4.72;;;;;;;21.04;45.68;101175.22;5073253;28;20378;-70
2021/08/13 04:50:34;;;;;;;11.65;3.35;;;;;;;20.99;45.83;101186.66;5072937;28;20031;-70
2021/08/13 04:53:00;;;;;;;23.67;4.65;;;;;;;21.11;45.35;101182.88;5073227;28;20476;-70
2021/08/13 04:55:26;;;;;;;10.05;2.80;;;;;;;21.12;45.48;101180.91;5072855;28;20124;-71
2021/08/13 04:57:55;;;;;;;20.02;4.30;;;;;;;21.14;45.46;101184.09;5070384;28;20035;-70
2021/08/13 05:00:21;;;;;;;11.98;3.35;;;;;;;21.09;45.61;101184.44;5052293;28;20059;-70
2021/08/13 05:02:47;;;;;;;11.93;2.85;;;;;;;21.12;45.52;101173.38;5052771;28;20100;-70
2021/08/13 05:05:13;;;;;;;10.38;2.88;;;;;;;21.04;45.84;101168.88;5053017;28;20029;-70
2021/08/13 05:07:39;;;;;;;13.20;3.67;;;;;;;21.12;45.51;101178.91;5052702;28;20139;-74
2021/08/13 05:10:12;;;;;;;10.10;3.13;;;;;;;20.86;46.46;101182.50;5052638;28;20036;-69
2021/08/13 05:12:38;;;;;;;17.88;3.75;;;;;;;21.03;46.02;101184.75;5068223;28;20379;-78
2021/08/13 05:15:07;;;;;;;12.30;3.28;;;;;;;20.98;46.29;101193.38;5052462;28;20468;-69
2021/08/13 05:17:33;;;;;;;15.93;3.63;;;;;;;21.04;46.18;101200.22;5052600;28;20021;-70
2021/08/13 05:19:58;;;;;;;15.18;3.35;;;;;;;21.00;46.37;101199.38;5052506;28;20017;-70
2021/08/13 05:22:24;;;;;;;22.38;4.20;;;;;;;21.00;46.47;101190.22;5052557;28;20028;-70
2021/08/13 05:24:50;;;;;;;19.27;4.20;;;;;;;21.09;46.18;101195.56;5052443;28;20053;-70
2021/08/13 05:27:15;;;;;;;13.45;4.60;;;;;;;21.19;46.07;101194.91;5052513;28;20025;-70
2021/08/13 05:29:41;;;;;;;10.18;3.13;;;;;;;21.10;46.45;101197.16;5052490;28;20036;-81
2021/08/13 05:32:07;;;;;;;10.90;3.33;;;;;;;21.22;46.12;101194.94;5052388;28;20506;-70
2021/08/13 05:34:33;;;;;;;13.90;3.75;;;;;;;21.19;46.39;101195.69;5052023;28;20052;-81
2021/08/13 05:36:58;;;;;;;19.40;4.82;;;;;;;21.21;46.33;101198.09;5052302;28;20036;-70
2021/08/13 05:39:24;;;;;;;17.98;3.50;;;;;;;21.25;46.19;101198.97;5052242;28;20091;-70
2021/08/13 05:41:50;;;;;;;11.25;3.88;;;;;;;;;;5052344;28;20029;-70
2021/08/13 05:44:16;;;;;;;13.13;3.08;;;;;;;21.20;46.56;101213.16;5052480;28;20028;-70
2021/08/13 05:46:41;;;;;;;12.45;2.65;;;;;;;21.28;46.27;101201.81;5051204;28;20025;-70
2021/08/13 05:49:07;;;;;;;10.85;3.95;;;;;;;21.24;46.58;101216.81;5050667;28;20021;-69
2021/08/13 05:51:32;;;;;;;11.30;3.10;;;;;;;21.43;46.08;101207.59;5050737;28;20483;-79
2021/08/13 05:53:58;;;;;;;11.13;3.22;;;;;;;21.51;45.81;101200.94;5052135;28;20025;-68
2021/08/13 05:56:24;;;;;;;11.80;3.10;;;;;;;21.43;46.00;101213.16;5050797;28;20115;-69
2021/08/13 05:58:49;;;;;;;12.05;3.15;;;;;;;21.52;45.51;101219.22;5052124;28;20020;-69
2021/08/13 06:01:15;;;;;;;14.55;3.85;;;;;;;21.49;45.56;101220.00;5052158;28;20025;-71
2021/08/13 06:03:40;;;;;;;18.38;4.25;;;;;;;21.56;45.32;101220.09;5052177;28;20071;-78
2021/08/13 06:06:06;;;;;;;16.63;3.40;;;;;;;21.46;45.70;101216.00;5050884;28;20029;-68
2021/08/13 06:08:32;;;;;;;6.13;2.42;;;;;;;21.63;45.17;101213.81;5052047;28;20422;-69
2021/08/13 06:10:57;;;;;;;19.73;3.63;;;;;;;21.69;45.10;101224.25;5052052;28;20130;-69
2021/08/13 06:13:23;;;;;;;11.80;2.97;;;;;;;21.81;44.85;101225.97;5051946;28;20099;-70
2021/08/13 06:15:49;;;;;;;14.75;3.78;;;;;;;21.77;44.96;101220.38;5051798;28;20037;-68
2021/08/13 06:18:15;;;;;;;15.63;3.63;;;;;;;21.78;45.09;101221.97;5052046;28;20052;-78
2021/08/13 06:20:40;;;;;;;17.25;3.78;;;;;;;21.72;45.00;101222.69;5050697;28;20052;-77
2021/08/13 06:23:06;;;;;;;18.05;4.35;;;;;;;21.83;44.72;101218.84;5051826;28;20029;-69
2021/08/13 06:25:32;;;;;;;16.13;4.20;;;;;;;21.78;44.81;101232.31;5050648;28;20545;-69
2021/08/13 06:27:58;;;;;;;13.43;3.75;;;;;;;21.62;45.35;101228.91;5051855;28;20028;-69
2021/08/13 06:30:23;;;;;;;18.05;3.80;;;;;;;21.68;44.97;101222.63;5051910;28;20434;-69
2021/08/13 06:32:51;;;;;;;14.13;4.22;;;;;;;21.82;44.69;101222.00;5051778;28;20029;-69
2021/08/13 06:35:17;;;;;;;13.25;4.57;;;;;;;21.94;44.73;101220.97;5050455;28;20506;-69
2021/08/13 06:37:51;;;;;;;18.33;3.55;;;;;;;21.88;45.07;101215.75;5067235;28;20525;-68
2021/08/13 06:40:17;;;;;;;13.50;3.28;;;;;;;22.15;44.45;101218.47;5051761;28;20017;-70
2021/08/13 06:42:43;;;;;;;16.88;3.08;;;;;;;22.29;44.05;101231.72;5053905;28;20025;-70
2021/08/13 06:45:11;;;;;;;9.57;2.88;;;;;;;22.34;43.87;101234.19;5054121;28;20486;-70
2021/08/13 06:47:37;;;;;;;35.10;6.07;;;;;;;22.34;44.18;101228.63;5055310;28;20111;-71
2021/08/13 06:50:04;;;;;;;13.65;2.85;;;;;;;22.27;44.43;101236.88;5055343;28;20539;-70
2021/08/13 06:52:30;;;;;;;12.55;2.88;;;;;;;22.59;43.46;101240.00;5053761;28;20043;-70
2021/08/13 06:54:55;;;;;;;13.98;3.08;;;;;;;22.61;43.84;101232.09;5055150;28;20033;-70
2021/08/13 06:57:21;;;;;;;14.32;3.25;;;;;;;22.68;43.54;101249.66;5055167;28;20029;-70
2021/08/13 06:59:46;;;;;;;14.57;5.03;;;;;;;22.84;43.14;101245.84;5055129;28;20025;-70
2021/08/13 07:02:12;;;;;;;17.98;4.10;;;;;;;22.90;43.20;101244.31;5055024;28;20422;-71
2021/08/13 07:04:38;;;;;;;10.20;3.42;;;;;;;23.07;42.80;101246.44;5053543;28;20028;-69
2021/08/13 07:07:03;;;;;;;15.30;3.78;;;;;;;23.06;43.08;101244.84;5054856;28;20029;-71
2021/08/13 07:09:29;;;;;;;12.45;3.58;;;;;;;23.12;42.76;101254.44;5060751;28;20107;-77
2021/08/13 07:11:55;;;;;;;13.52;3.38;;;;;;;22.96;43.08;101256.69;5074408;28;20086;-70
2021/08/13 07:14:20;;;;;;;13.43;3.65;;;;;;;23.17;42.84;101264.44;5073369;28;20032;-71
2021/08/13 07:16:47;;;;;;;23.13;7.28;;;;;;;23.31;42.55;101269.31;5074549;28;20071;-70
2021/08/13 07:19:12;;;;;;;15.85;3.88;;;;;;;23.28;42.37;101267.31;5071458;28;20031;-70
2021/08/13 07:21:39;;;;;;;18.20;3.83;;;;;;;22.93;43.13;101269.44;5074448;28;20025;-70
2021/08/13 07:24:04;;;;;;;12.35;3.05;;;;;;;23.05;42.67;101273.91;5074315;28;20020;-70
2021/08/13 07:26:30;;;;;;;11.52;3.15;;;;;;;23.03;42.96;101270.69;5074168;28;20596;-72
2021/08/13 07:28:56;;;;;;;14.65;4.22;;;;;;;23.46;42.24;101274.63;5073252;28;20032;-71
2021/08/13 07:31:21;;;;;;;7.97;2.28;;;;;;;23.65;41.91;101270.75;5074425;28;20081;-70
2021/08/13 07:33:47;;;;;;;12.05;3.88;;;;;;;23.71;41.77;101274.00;5072810;28;20051;-70
2021/08/13 07:36:12;;;;;;;13.68;4.28;;;;;;;23.57;41.96;101280.25;5074365;28;20051;-70
2021/08/13 07:38:41;;;;;;;13.13;3.03;;;;;;;23.51;41.68;101279.03;5074137;28;20233;-70
2021/08/13 07:41:08;;;;;;;13.43;3.92;;;;;;;23.44;41.94;101271.44;5074260;28;20422;-72
2021/08/13 07:43:34;;;;;;;12.00;3.00;;;;;;;22.91;42.14;101265.44;5073066;28;20024;-69
2021/08/13 07:46:00;;;;;;;9.77;3.10;;;;;;;23.44;40.89;101279.78;5072730;28;20107;-69
2021/08/13 07:48:26;;;;;;;6.03;2.10;;;;;;;23.42;40.95;101284.94;5074242;28;20032;-80
2021/08/13 07:50:52;;;;;;;10.85;3.33;;;;;;;23.30;40.92;101290.03;5072889;28;20027;-80
2021/08/13 07:53:17;;;;;;;9.25;2.40;;;;;;;23.50;40.79;101292.19;5074050;28;20048;-80
2021/08/13 07:55:43;;;;;;;10.23;2.60;;;;;;;23.42;41.11;101295.28;5074118;28;20033;-79
2021/08/13 07:58:09;;;;;;;18.08;3.80;;;;;;;23.56;40.80;101295.38;5074161;28;20475;-81
2021/08/13 08:00:34;;;;;;;11.13;3.47;;;;;;;23.77;40.51;101303.13;5074009;28;20025;-80
2021/08/13 08:03:00;;;;;;;15.68;3.00;;;;;;;23.71;40.71;101301.91;5074000;28;20035;-80
2021/08/13 08:05:25;;;;;;;14.23;3.70;;;;;;;23.96;40.49;101302.84;5073870;28;20103;-80
2021/08/13 08:07:51;;;;;;;16.63;4.00;;;;;;;24.09;40.48;101297.72;5072535;28;20117;-80
2021/08/13 08:10:17;;;;;;;13.52;3.63;;;;;;;24.39;40.25;101302.25;5073749;28;20021;-79
2021/08/13 08:12:43;;;;;;;10.75;3.80;;;;;;;24.42;40.10;101298.69;5073625;28;20028;-80
2021/08/13 08:15:09;;;;;;;23.77;4.13;;;;;;;24.62;39.91;101289.53;5073648;28;20103;-82
2021/08/13 08:17:34;;;;;;;13.77;3.08;;;;;;;24.48;39.69;101294.28;5072930;28;20119;-88
2021/08/13 08:20:00;;;;;;;9.90;3.33;;;;;;;24.70;39.31;101301.53;5071799;28;20017;-79
2021/08/13 08:22:25;;;;;;;12.50;2.47;;;;;;;24.59;39.59;101292.34;5072855;28;20024;-79
2021/08/13 10:38:50;;;;;;;9.90;2.35;;;;;;;26.23;36.63;101345.44;5066299;28;20416;-81
2021/08/13 10:41:20;;;;;;;7.77;2.43;;;;;;;26.20;35.95;101335.03;5066637;28;20033;-81
2021/08/13 10:43:47;;;;;;;7.13;2.03;;;;;;;26.11;35.97;101346.69;5066936;27;20021;-86
2021/08/13 10:46:14;;;;;;;9.40;2.92;;;;;;;26.60;35.84;101360.91;5066569;28;20470;-91
2021/08/13 10:48:46;;;;;;;9.52;3.00;;;;;;;26.17;36.35;101361.88;5066117;28;20025;-87
2021/08/13 10:51:25;;;;;;;10.13;2.75;;;;;;;26.41;36.07;101365.81;5065545;28;20032;-89
2021/08/13 10:54:07;;;;;;;9.18;3.22;;;;;;;26.27;35.91;101365.81;5066980;28;20025;-82
2021/08/13 10:56:48;;;;;;;13.70;2.65;;;;;;;26.85;35.72;101363.59;5066405;28;20045;-79
2021/08/13 10:59:39;;;;;;;8.95;2.88;;;;;;;26.98;34.97;101376.72;5066976;28;20029;-82
2021/08/13 11:02:13;;;;;;;7.40;2.30;;;;;;;27.57;34.47;101365.47;5064940;27;20081;-82
2021/08/13 11:04:43;;;;;;;12.43;3.10;;;;;;;27.29;34.53;101368.53;5066351;28;20028;-81
2021/08/13 11:07:09;;;;;;;7.25;2.05;;;;;;;27.19;33.88;101372.19;5066011;28;20543;-83
2021/08/13 11:09:38;;;;;;;7.78;2.20;;;;;;;26.52;34.58;101374.94;5066132;28;20070;-83
2021/08/13 11:12:12;;;;;;;7.53;2.38;;;;;;;27.19;34.24;101383.41;5065933;28;20116;-82
2021/08/13 11:14:55;;;;;;;9.02;1.98;;;;;;;27.07;34.19;101377.09;5064755;28;20024;-82
2021/08/13 11:17:50;;;;;;;7.18;2.47;;;;;;;26.97;34.34;101377.91;5064597;28;20442;-83
2021/08/13 11:20:16;;;;;;;8.25;2.70;;;;;;;26.90;34.45;101388.38;5055904;28;20032;-82
2021/08/13 11:22:42;;;;;;;10.00;2.20;;;;;;;26.77;34.46;101388.06;5065825;28;20013;-82
2021/08/13 11:25:11;;;;;;;7.50;1.80;;;;;;;26.91;34.65;101376.78;5064439;28;20031;-82
2021/08/13 11:27:38;;;;;;;6.90;2.00;;;;;;;26.92;35.08;101385.97;5065908;28;20037;-82
2021/08/13 11:30:05;;;;;;;6.95;2.08;;;;;;;27.46;34.23;101370.38;5065649;28;20025;-80
2021/08/13 11:32:33;;;;;;;7.75;2.60;;;;;;;27.47;34.17;101368.38;5065593;28;20021;-80
2021/08/13 11:35:06;;;;;;;8.02;2.25;;;;;;;27.57;34.65;101371.06;5063889;28;20092;-80
2021/08/13 11:37:35;;;;;;;8.07;2.47;;;;;;;27.60;33.28;101366.66;5064426;28;20068;-81
2021/08/13 11:40:03;;;;;;;9.38;2.38;;;;;;;27.45;33.24;101376.41;5051731;28;20032;-81
2021/08/13 11:42:32;;;;;;;8.05;2.17;;;;;;;27.01;33.28;101377.91;5052091;28;20494;-81
2021/08/13 11:45:04;;;;;;;10.20;2.78;;;;;;;27.28;33.45;101375.31;5052101;28;20067;-80
2021/08/13 11:47:30;;;;;;;6.45;2.03;;;;;;;27.38;33.18;101374.47;5050583;28;20033;-81
2021/08/13 11:49:56;;;;;;;4.45;1.75;;;;;;;26.41;35.01;101374.22;5050409;28;20094;-80
2021/08/13 11:52:24;;;;;;;15.38;3.67;;;;;;;26.88;34.43;101386.00;5052079;28;20055;-81
2021/08/13 11:54:50;;;;;;;10.23;2.38;;;;;;;26.91;34.66;101379.56;5052118;28;20420;-81
2021/08/13 11:57:22;;;;;;;8.73;2.47;;;;;;;26.62;34.96;101383.75;5050535;28;20064;-82
2021/08/13 11:59:49;;;;;;;16.50;3.55;;;;;;;26.90;34.75;101379.97;5047632;28;20025;-83
2021/08/13 12:02:27;;;;;;;9.30;2.88;;;;;;;27.33;34.17;101383.31;5046028;28;20375;-82
2021/08/13 12:05:10;;;;;;;8.70;2.60;;;;;;;27.70;33.64;101379.03;5039839;28;20024;-83
2021/08/13 12:07:36;;;;;;;4.13;1.60;;;;;;;28.00;33.73;101364.28;5036900;28;20025;-82
2021/08/13 12:10:12;;;;;;;8.32;2.70;;;;;;;27.95;33.43;101390.00;5049589;28;20566;-83
2021/08/13 12:12:39;;;;;;;10.23;2.60;;;;;;;27.77;33.29;101395.81;5050465;28;20128;-83
2021/08/13 12:15:05;;;;;;;8.55;2.13;;;;;;;27.30;33.95;101389.75;5050272;28;20021;-82
2021/08/13 12:17:31;;;;;;;9.48;2.20;;;;;;;27.31;33.74;101402.56;5049928;28;20065;-82
2021/08/13 12:19:59;;;;;;;12.25;2.28;;;;;;;26.78;34.39;101393.25;5050754;28;20025;-83
2021/08/13 12:22:35;;;;;;;25.60;4.20;;;;;;;27.13;34.03;101401.88;5051511;28;20028;-82
2021/08/13 12:25:02;;;;;;;19.40;3.70;;;;;;;27.33;33.45;101402.94;5051461;28;20025;-81
2021/08/13 12:27:32;;;;;;;8.07;2.22;;;;;;;27.15;33.50;101407.91;5051235;27;20039;-82
2021/08/13 12:29:59;;;;;;;10.80;2.17;;;;;;;26.57;34.70;101409.38;5051391;28;20025;-82
2021/08/13 12:32:40;;;;;;;9.50;2.50;;;;;;;27.46;33.55;101408.88;5049714;28;20060;-82
2021/08/13 12:35:08;;;;;;;7.68;1.95;;;;;;;27.38;33.51;101408.94;5044307;28;20041;-83
2021/08/13 12:37:34;;;;;;;10.55;2.13;;;;;;;26.49;34.69;101415.00;5039820;28;20041;-82
2021/08/13 12:40:01;;;;;;;8.07;2.22;;;;;;;26.69;34.58;101397.72;5039939;28;20116;-85
2021/08/13 12:42:28;;;;;;;9.32;2.70;;;;;;;26.78;35.01;101420.50;5038093;28;20500;-83
2021/08/13 12:44:54;;;;;;;6.53;2.20;;;;;;;26.87;35.46;101411.63;5036367;28;20053;-82
2021/08/13 12:47:21;;;;;;;7.28;1.88;;;;;;;27.23;34.96;101413.06;5030474;28;20025;-83
2021/08/13 12:49:47;;;;;;;10.98;2.00;;;;;;;27.51;34.42;101400.81;5030066;28;20036;-82
2021/08/13 12:52:27;;;;;;;7.18;2.10;;;;;;;27.70;34.18;101390.25;5041722;28;20112;-79
2021/08/13 12:54:54;;;;;;;9.55;2.30;;;;;;;27.21;34.55;101418.28;5374159;23;20083;-82
2021/08/13 12:57:21;;;;;;;7.07;1.80;;;;;;;27.10;34.19;101423.94;5070930;28;20029;-79
2021/08/13 12:59:51;;;;;;;10.90;2.20;;;;;;;27.01;34.64;101445.22;5056084;28;20020;-85
2021/08/13 13:02:25;;;;;;;7.78;2.20;;;;;;;26.23;35.39;101440.69;5054735;28;20024;-82
2021/08/13 13:05:00;;;;;;;11.68;2.30;;;;;;;26.55;35.00;101446.22;5057560;28;20033;-83
2021/08/13 13:07:40;;;;;;;6.40;2.13;;;;;;;26.05;35.96;101439.91;5053434;28;20037;-81
2021/08/13 13:10:16;;;;;;;12.85;3.13;;;;;;;26.48;34.99;101446.25;5073700;28;20025;-82
2021/08/13 13:12:42;;;;;;;8.38;2.42;;;;;;;26.70;35.32;101444.16;5056531;28;20026;-84
2021/08/13 13:15:31;;;;;;;9.88;2.70;;;;;;;26.59;35.49;101446.19;5055813;28;20115;-82
2021/08/13 13:17:58;;;;;;;6.53;2.80;;;;;;;26.81;35.39;101444.91;5059883;28;20622;-79
2021/08/13 13:20:32;;;;;;;15.45;3.08;;;;;;;27.06;35.26;101448.41;5070647;28;20273;-82
2021/08/13 13:23:03;;;;;;;14.35;3.13;;;;;;;27.24;35.28;101445.50;5058020;28;20031;-84
2021/08/13 13:25:42;;;;;;;9.20;2.45;;;;;;;27.27;35.73;101450.28;5070637;28;20041;-79
2021/08/13 13:28:09;;;;;;;9.17;2.37;;;;;;;27.45;35.25;101435.34;5065259;28;20047;-83
2021/08/13 13:30:39;;;;;;;15.27;3.30;;;;;;;26.99;35.45;101450.44;5068994;28;20380;-83
2021/08/13 13:33:04;;;;;;;;;;;;;;;27.11;35.04;101449.97;5057294;28;20026;-83
2021/08/13 13:35:30;;;;;;;5.70;2.03;;;;;;;27.35;34.75;101449.03;5051716;28;20471;-83
2021/08/13 13:38:01;;;;;;;8.13;2.85;;;;;;;27.68;34.28;101454.44;5070736;28;20021;-82